createdAt,value
2022-12-23T00:01:59.034Z,72.43
2022-12-23T00:05:21.272Z,64.22
2022-12-23T00:08:44.354Z,68.60
2022-12-23T00:12:25.180Z,66.43
2022-12-23T00:15:47.143Z,53.00
2022-12-23T00:19:09.087Z,64.05
2022-12-23T00:22:50.003Z,58.35
2022-12-23T00:26:18.831Z,52.30
2022-12-23T00:29:40.822Z,53.83
2022-12-23T00:33:02.828Z,50.28
2022-12-23T00:36:28.026Z,59.20
2022-12-23T00:40:09.097Z,64.32
2022-12-23T00:43:31.034Z,54.67
2022-12-23T00:46:53.261Z,62.47
2022-12-23T00:50:15.278Z,53.05
2022-12-23T00:53:37.310Z,53.30
2022-12-23T00:57:00.511Z,50.00
2022-12-23T01:00:42.685Z,62.38
2022-12-23T01:04:23.343Z,52.90
2022-12-23T01:07:45.289Z,64.93
2022-12-23T01:11:10.216Z,66.85
2022-12-23T01:14:32.451Z,55.28
2022-12-23T01:17:54.483Z,60.78
2022-12-23T01:21:16.442Z,67.63
2022-12-23T01:24:38.571Z,61.60
2022-12-23T01:28:00.566Z,61.15
2022-12-23T01:31:24.445Z,70.13
2022-12-23T01:34:46.536Z,64.90
2022-12-23T01:38:08.486Z,63.17
2022-12-23T01:41:51.319Z,71.60
2022-12-23T01:45:19.239Z,64.28
2022-12-23T01:48:44.173Z,62.20
2022-12-23T01:52:06.236Z,62.03
2022-12-23T01:55:31.172Z,56.35
2022-12-23T01:59:00.196Z,57.05
2022-12-23T02:02:41.530Z,60.85
2022-12-23T02:13:16.358Z,56.78
2022-12-23T02:16:50.572Z,61.40
2022-12-23T02:20:18.560Z,60.63
2022-12-23T02:23:46.498Z,71.20
2022-12-23T02:27:23.284Z,68.45
2022-12-23T02:31:19.096Z,63.13
2022-12-23T02:34:48.423Z,57.40
2022-12-23T02:38:35.618Z,62.83
2022-12-23T02:42:06.205Z,55.05
2022-12-23T02:45:49.814Z,72.90
2022-12-23T02:49:20.621Z,71.32
2022-12-23T02:52:45.836Z,55.72
2022-12-23T02:56:10.355Z,59.67
2022-12-23T02:59:41.241Z,62.75
2022-12-23T03:03:03.574Z,69.40
2022-12-23T03:06:30.505Z,65.22
2022-12-23T03:10:11.497Z,63.13
2022-12-23T03:13:54.850Z,66.15
2022-12-23T03:17:28.923Z,73.97
2022-12-23T03:21:38.881Z,75.75
2022-12-23T03:25:38.234Z,72.82
2022-12-23T03:29:15.656Z,73.18
2022-12-23T03:32:47.057Z,79.43
2022-12-23T03:36:25.268Z,67.25
2022-12-23T03:39:52.891Z,69.13
2022-12-23T03:43:43.480Z,75.38
2022-12-23T03:47:18.304Z,70.43
2022-12-23T03:50:42.934Z,76.60
2022-12-23T03:54:10.150Z,60.22
2022-12-23T03:57:58.373Z,41.67
2022-12-23T04:01:23.236Z,43.92
2022-12-23T04:04:51.441Z,41.67
2022-12-23T04:08:24.379Z,41.38
2022-12-23T04:11:46.555Z,39.33
2022-12-23T04:15:12.849Z,38.55
2022-12-23T04:18:35.577Z,47.60
2022-12-23T04:21:57.971Z,43.60
2022-12-23T04:25:20.070Z,43.10
2022-12-23T04:28:42.039Z,38.38
2022-12-23T04:32:04.260Z,34.72
2022-12-23T04:35:26.280Z,40.97
2022-12-23T04:38:48.218Z,31.77
2022-12-23T04:42:10.398Z,29.65
2022-12-23T04:45:33.288Z,31.00
2022-12-23T04:48:55.276Z,25.25
2022-12-23T04:52:17.256Z,29.58
2022-12-23T04:55:39.259Z,31.05
2022-12-23T04:59:02.407Z,29.95
2022-12-23T05:02:24.445Z,32.13
2022-12-23T05:05:46.517Z,30.67
2022-12-23T05:09:08.963Z,27.52
2022-12-23T05:12:31.586Z,35.95
2022-12-23T05:15:55.067Z,28.38
2022-12-23T05:19:17.220Z,37.70
2022-12-23T05:22:39.194Z,33.25
2022-12-23T05:26:01.324Z,33.30
2022-12-23T05:29:23.237Z,35.72
2022-12-23T05:32:45.314Z,31.75
2022-12-23T05:36:07.553Z,29.00
2022-12-23T05:39:29.593Z,27.50
2022-12-23T05:42:51.615Z,30.02
2022-12-23T05:46:13.761Z,40.03
2022-12-23T05:49:35.755Z,41.75
2022-12-23T05:52:57.878Z,37.75
2022-12-23T05:56:19.882Z,45.10
2022-12-23T05:59:41.857Z,36.78
2022-12-23T06:03:03.980Z,47.88
2022-12-23T06:06:26.219Z,41.08
2022-12-23T06:09:48.185Z,42.05
2022-12-23T06:13:10.386Z,50.20
2022-12-23T06:16:32.424Z,47.75
2022-12-23T06:19:54.418Z,43.30
2022-12-23T06:23:16.480Z,49.33
2022-12-23T06:26:38.412Z,56.33
2022-12-23T06:30:00.398Z,63.70
2022-12-23T06:33:23.089Z,74.18
2022-12-23T06:36:45.068Z,58.47
2022-12-23T06:40:07.543Z,63.25
2022-12-23T06:43:29.545Z,65.82
2022-12-23T06:46:51.632Z,59.00
2022-12-23T06:50:13.647Z,59.00
2022-12-23T06:53:35.644Z,52.08
2022-12-23T06:56:57.632Z,56.90
2022-12-23T07:00:20.238Z,52.65
2022-12-23T07:03:42.318Z,49.85
2022-12-23T07:07:04.359Z,54.33
2022-12-23T07:10:26.337Z,47.17
2022-12-23T07:13:48.799Z,45.25
2022-12-23T07:17:10.845Z,42.67
2022-12-23T07:20:33.038Z,36.92
2022-12-23T07:23:55.073Z,37.65
2022-12-23T07:27:17.051Z,44.88
2022-12-23T07:30:38.985Z,41.65
2022-12-23T07:34:00.890Z,47.72
2022-12-23T07:37:22.825Z,46.53
2022-12-23T07:40:49.100Z,50.50
2022-12-23T07:44:11.015Z,53.58
2022-12-23T07:47:32.977Z,56.78
2022-12-23T07:51:03.692Z,41.22
2022-12-23T07:54:25.665Z,38.47
2022-12-23T07:57:51.688Z,41.40
2022-12-23T08:01:13.774Z,67.75
2022-12-23T08:04:38.392Z,44.78
2022-12-23T08:08:05.022Z,39.53
2022-12-23T08:11:26.977Z,39.22
2022-12-23T08:14:50.458Z,40.20
2022-12-23T08:18:12.369Z,37.20
2022-12-23T08:21:34.753Z,44.50
2022-12-23T08:24:56.695Z,39.92
2022-12-23T08:28:18.639Z,40.78
2022-12-23T08:31:40.633Z,39.42
2022-12-23T08:35:02.619Z,46.67
2022-12-23T08:38:24.812Z,42.83
2022-12-23T08:41:48.318Z,38.38
2022-12-23T08:45:10.707Z,47.40
2022-12-23T08:48:34.311Z,42.50
2022-12-23T08:51:56.320Z,36.08
2022-12-23T08:55:18.404Z,46.65
2022-12-23T08:58:45.561Z,37.10
2022-12-23T09:02:10.456Z,42.03
2022-12-23T09:05:32.793Z,46.85
2022-12-23T09:08:55.587Z,40.25
2022-12-23T09:12:17.539Z,44.17
2022-12-23T09:15:43.577Z,54.97
2022-12-23T09:19:05.752Z,49.67
2022-12-23T09:22:27.731Z,47.85
2022-12-23T09:25:49.684Z,50.30
2022-12-23T09:29:11.616Z,44.55
2022-12-23T09:32:33.585Z,45.95
2022-12-23T09:36:00.345Z,49.40
2022-12-23T09:39:22.518Z,43.40
2022-12-23T09:43:18.544Z,42.47
2022-12-23T09:46:51.850Z,43.17
2022-12-23T09:50:32.052Z,48.33
2022-12-23T09:53:59.963Z,50.58
2022-12-23T09:57:58.699Z,49.38
2022-12-23T10:01:49.015Z,52.25
2022-12-23T10:05:24.598Z,50.27
2022-12-23T10:08:50.391Z,50.67
2022-12-23T10:12:39.382Z,51.03
2022-12-23T10:19:43.227Z,49.20
2022-12-23T10:23:12.818Z,50.70
2022-12-23T10:26:47.197Z,49.80
2022-12-23T10:30:42.552Z,53.53
2022-12-23T10:34:22.393Z,54.22
2022-12-23T10:37:53.390Z,52.95
2022-12-23T10:41:27.622Z,47.38
2022-12-23T10:44:49.510Z,52.95
2022-12-23T10:48:50.720Z,47.15
2022-12-23T10:52:24.118Z,47.40
2022-12-23T10:55:46.394Z,55.30
2022-12-23T10:59:15.938Z,45.92
2022-12-23T11:03:07.059Z,29.33
2022-12-23T11:10:13.174Z,26.05
2022-12-23T11:13:43.878Z,28.02
2022-12-23T11:17:22.250Z,25.05
2022-12-23T11:21:00.894Z,26.42
2022-12-23T11:24:24.061Z,35.28
2022-12-23T11:27:46.886Z,33.85
2022-12-23T11:31:14.658Z,30.20
2022-12-23T11:34:38.277Z,33.75
2022-12-23T11:38:02.019Z,32.75
2022-12-23T11:41:28.773Z,29.77
2022-12-23T11:44:54.060Z,32.40
2022-12-23T11:48:30.346Z,33.20
2022-12-23T11:52:06.235Z,29.02
2022-12-23T11:55:32.929Z,36.58
2022-12-23T11:59:02.965Z,30.70
2022-12-23T12:02:34.551Z,31.05
2022-12-23T12:06:00.961Z,36.70
2022-12-23T12:09:24.246Z,32.03
2022-12-23T12:12:52.771Z,33.13
2022-12-23T12:16:34.485Z,32.50
2022-12-23T12:20:05.865Z,34.93
2022-12-23T12:24:08.405Z,36.90
2022-12-23T12:27:38.406Z,35.88
2022-12-23T12:31:13.314Z,33.33
2022-12-23T12:34:51.591Z,33.72
2022-12-23T12:38:27.823Z,38.97
2022-12-23T12:42:11.672Z,38.08
2022-12-23T12:45:42.357Z,41.72
2022-12-23T12:49:22.508Z,38.45
2022-12-23T12:52:44.957Z,37.40
2022-12-23T12:56:15.837Z,42.72
2022-12-23T12:59:40.873Z,43.17
2022-12-23T13:03:40.758Z,41.90
2022-12-23T13:07:32.099Z,38.13
2022-12-23T13:11:09.823Z,36.20
2022-12-23T13:14:43.868Z,37.78
2022-12-23T13:18:05.825Z,38.30
2022-12-23T13:22:01.570Z,38.67
2022-12-23T13:25:25.679Z,41.40
2022-12-23T13:28:59.695Z,40.85
2022-12-23T13:32:36.715Z,37.38
2022-12-23T13:36:24.079Z,39.90
2022-12-23T13:40:03.366Z,40.75
2022-12-23T13:43:28.950Z,36.75
2022-12-23T13:47:14.848Z,41.03
2022-12-23T13:50:50.645Z,40.28
2022-12-23T13:54:20.733Z,38.00
2022-12-23T13:58:07.525Z,35.35
2022-12-23T14:01:44.817Z,42.55
2022-12-23T14:05:26.568Z,64.47
2022-12-23T14:08:49.602Z,39.65
2022-12-23T14:12:27.947Z,37.42
2022-12-23T14:16:02.216Z,39.35
2022-12-23T14:19:48.792Z,39.55
2022-12-23T14:23:19.723Z,42.28
2022-12-23T14:27:02.413Z,38.47
2022-12-23T14:30:36.139Z,39.08
2022-12-23T14:34:23.156Z,45.47
2022-12-23T14:38:05.053Z,36.95
2022-12-23T14:41:39.233Z,51.60
2022-12-23T14:45:28.734Z,56.83
2022-12-23T14:48:59.594Z,64.55
2022-12-23T14:52:40.747Z,61.35
2022-12-23T14:56:15.056Z,63.78
2022-12-23T15:00:12.915Z,66.60
2022-12-23T15:03:42.104Z,71.57
2022-12-23T15:07:07.271Z,64.75
2022-12-23T15:10:37.999Z,71.80
2022-12-23T15:14:08.939Z,64.75
2022-12-23T15:17:38.198Z,69.68
2022-12-23T15:21:09.793Z,86.10
2022-12-23T15:24:31.809Z,75.63
2022-12-23T15:28:01.576Z,81.60
2022-12-23T15:31:43.311Z,81.85
2022-12-23T15:35:07.381Z,74.07
2022-12-23T15:38:31.803Z,85.50
2022-12-23T15:41:53.820Z,80.30
2022-12-23T15:45:37.760Z,94.78
2022-12-23T15:48:59.849Z,86.80
2022-12-23T15:52:22.480Z,94.25
2022-12-23T15:55:45.214Z,84.45
2022-12-23T15:59:21.128Z,103.55
2022-12-23T16:03:01.507Z,96.28
2022-12-23T16:06:29.792Z,100.30
2022-12-23T16:09:54.852Z,101.38
2022-12-23T16:13:20.311Z,99.15
2022-12-23T16:16:43.488Z,103.78
2022-12-23T16:20:26.428Z,106.47
2022-12-23T16:23:53.012Z,97.95
2022-12-23T16:27:19.269Z,97.28
2022-12-23T16:30:42.807Z,101.53
2022-12-23T16:34:07.869Z,100.53
2022-12-23T16:37:29.940Z,106.15
2022-12-23T16:40:56.332Z,110.78
2022-12-23T16:44:18.414Z,108.70
2022-12-23T16:47:42.486Z,107.13
2022-12-23T16:51:13.920Z,101.88
2022-12-23T16:54:35.983Z,100.47
2022-12-23T16:57:58.003Z,108.18
2022-12-23T17:01:24.833Z,93.53
2022-12-23T17:04:46.837Z,108.05
2022-12-23T17:08:10.032Z,101.38
2022-12-23T17:11:42.435Z,105.85
2022-12-23T17:15:05.694Z,110.13
2022-12-23T17:18:27.735Z,108.85
2022-12-23T17:21:55.517Z,97.63
2022-12-23T17:25:26.220Z,136.07
2022-12-23T17:28:48.717Z,122.03
2022-12-23T17:32:13.281Z,125.30
2022-12-23T17:35:35.317Z,113.05
2022-12-23T17:38:57.433Z,126.50
2022-12-23T17:42:25.779Z,109.03
2022-12-23T17:45:48.221Z,103.70
2022-12-23T17:49:11.178Z,120.60
2022-12-23T17:52:33.136Z,112.40
2022-12-23T17:55:55.090Z,112.03
2022-12-23T17:59:17.177Z,108.28
2022-12-23T18:02:39.681Z,112.32
2022-12-23T18:06:02.495Z,112.22
2022-12-23T18:09:24.607Z,107.55
2022-12-23T18:12:50.084Z,171.40
2022-12-23T18:16:13.014Z,250.30
2022-12-23T18:19:35.018Z,139.15
2022-12-23T18:22:59.260Z,115.75
2022-12-23T18:26:21.297Z,108.07
2022-12-23T18:29:43.992Z,108.43
2022-12-23T18:33:08.829Z,94.35
2022-12-23T18:36:35.602Z,104.40
2022-12-23T18:39:57.781Z,103.18
2022-12-23T18:43:22.379Z,106.63
2022-12-23T18:46:44.469Z,110.07
2022-12-23T18:50:06.986Z,101.20
2022-12-23T18:53:29.095Z,108.53
2022-12-23T18:56:51.126Z,112.20
2022-12-23T19:00:19.461Z,109.85
2022-12-23T19:03:41.764Z,112.25
2022-12-23T19:07:03.745Z,97.90
2022-12-23T19:10:29.123Z,105.68
2022-12-23T19:13:51.120Z,104.53
2022-12-23T19:17:13.085Z,100.50
2022-12-23T19:20:35.066Z,111.68
2022-12-23T19:23:58.439Z,101.18
2022-12-23T19:27:20.359Z,108.05
2022-12-23T19:30:42.578Z,102.03
2022-12-23T19:34:08.123Z,101.43
2022-12-23T19:37:33.719Z,225.55
2022-12-23T19:40:58.853Z,102.80
2022-12-23T19:44:20.948Z,93.03
2022-12-23T19:47:43.023Z,97.10
2022-12-23T19:51:13.554Z,101.03
2022-12-23T19:54:35.560Z,91.70
2022-12-23T19:57:57.544Z,95.22
2022-12-23T20:01:22.505Z,102.90
2022-12-23T20:04:44.804Z,87.28
2022-12-23T20:08:09.994Z,87.53
2022-12-23T20:11:58.534Z,86.32
2022-12-23T20:15:20.609Z,93.88
2022-12-23T20:18:42.775Z,90.72
2022-12-23T20:22:04.742Z,104.88
2022-12-23T20:25:26.846Z,106.18
2022-12-23T20:28:49.357Z,95.47
2022-12-23T20:32:11.354Z,92.90
2022-12-23T20:35:33.404Z,99.57
2022-12-23T20:38:56.385Z,106.50
2022-12-23T20:42:18.361Z,112.30
2022-12-23T20:45:42.986Z,102.35
2022-12-23T20:49:05.120Z,103.93
2022-12-23T20:52:29.982Z,94.70
2022-12-23T20:55:52.248Z,83.00
2022-12-23T20:59:14.313Z,89.40
2022-12-23T21:02:36.310Z,100.57
2022-12-23T21:05:58.554Z,96.72
2022-12-23T21:09:20.531Z,122.93
2022-12-23T21:12:42.549Z,105.40
2022-12-23T21:16:09.807Z,89.03
2022-12-23T21:19:31.827Z,90.32
2022-12-23T21:22:53.794Z,92.05
2022-12-23T21:26:18.112Z,92.60
2022-12-23T21:29:40.055Z,85.40
2022-12-23T21:33:03.539Z,86.93
2022-12-23T21:36:31.180Z,86.88
2022-12-23T21:39:53.260Z,75.43
2022-12-23T21:43:15.197Z,77.85
2022-12-23T21:46:37.344Z,77.72
2022-12-23T21:49:59.566Z,85.78
2022-12-23T21:53:21.725Z,83.68
2022-12-23T21:56:43.760Z,82.97
2022-12-23T22:00:06.555Z,84.85
2022-12-23T22:03:28.694Z,87.13
2022-12-23T22:06:50.899Z,80.53
2022-12-23T22:10:12.948Z,73.80
2022-12-23T22:13:35.024Z,89.55
2022-12-23T22:16:57.192Z,74.05
2022-12-23T22:20:19.679Z,78.65
2022-12-23T22:23:42.648Z,65.80
2022-12-23T22:27:04.647Z,74.00
2022-12-23T22:30:27.045Z,67.97
2022-12-23T22:33:49.084Z,73.30
2022-12-23T22:37:11.231Z,68.53
2022-12-23T22:40:33.431Z,64.32
2022-12-23T22:43:56.216Z,68.57
2022-12-23T22:47:18.705Z,65.03
2022-12-23T22:50:40.919Z,64.70
2022-12-23T22:54:04.243Z,79.57
2022-12-23T22:57:26.245Z,71.93
2022-12-23T23:00:48.268Z,71.28
2022-12-23T23:04:10.663Z,83.68
2022-12-23T23:07:32.709Z,83.47
2022-12-23T23:10:57.276Z,78.97
2022-12-23T23:14:19.942Z,76.97
2022-12-23T23:17:41.900Z,81.00
2022-12-23T23:21:03.941Z,72.15
2022-12-23T23:24:31.069Z,70.32
2022-12-23T23:27:53.610Z,76.50
2022-12-23T23:34:57.634Z,74.85
2022-12-23T23:38:19.564Z,74.50
2022-12-23T23:41:42.204Z,83.85
2022-12-23T23:45:04.619Z,81.20
2022-12-23T23:48:26.590Z,72.45
2022-12-23T23:51:49.362Z,68.57
2022-12-23T23:55:11.486Z,82.38
2022-12-23T23:58:34.550Z,79.07
